createdAt,value
2018-12-02T00:00:49.151Z,36.60
2018-12-02T00:03:16.622Z,30.97
2018-12-02T00:05:43.752Z,33.30
2018-12-02T00:08:10.815Z,36.73
2018-12-02T00:10:38.283Z,36.43
2018-12-02T00:13:05.350Z,36.87
2018-12-02T00:15:32.805Z,37.63
2018-12-02T00:18:00.910Z,29.13
2018-12-02T00:20:28.041Z,34.33
2018-12-02T00:22:55.218Z,32.27
2018-12-02T00:25:22.295Z,34.97
2018-12-02T00:27:50.758Z,37.80
2018-12-02T00:30:22.367Z,35.63
2018-12-02T00:32:49.487Z,38.53
2018-12-02T00:35:16.954Z,31.90
2018-12-02T00:37:45.718Z,45.70
2018-12-02T00:40:13.235Z,29.03
2018-12-02T00:42:40.839Z,33.93
2018-12-02T00:45:11.595Z,33.30
2018-12-02T00:47:38.685Z,36.40
2018-12-02T00:50:06.814Z,35.40
2018-12-02T00:52:33.954Z,32.23
2018-12-02T00:55:01.067Z,33.13
2018-12-02T00:57:28.205Z,34.90
2018-12-02T00:59:55.533Z,35.37
2018-12-02T01:02:22.650Z,35.77
2018-12-02T01:04:49.756Z,34.67
2018-12-02T01:07:17.253Z,30.30
2018-12-02T01:09:44.324Z,26.53
2018-12-02T01:12:11.378Z,37.63
2018-12-02T01:14:38.422Z,41.13
2018-12-02T01:17:05.521Z,31.63
2018-12-02T01:19:32.623Z,29.60
2018-12-02T01:21:59.939Z,34.57
2018-12-02T01:24:27.013Z,40.57
2018-12-02T01:26:54.083Z,30.83
2018-12-02T01:29:21.423Z,32.27
2018-12-02T01:31:48.521Z,33.60
2018-12-02T01:34:15.595Z,31.60
2018-12-02T01:36:42.975Z,31.63
2018-12-02T01:39:10.053Z,31.40
2018-12-02T01:41:37.106Z,37.13
2018-12-02T01:44:04.181Z,30.33
2018-12-02T01:46:31.230Z,31.50
2018-12-02T01:48:58.291Z,26.83
2018-12-02T01:51:25.684Z,29.77
2018-12-02T01:53:52.777Z,31.40
2018-12-02T01:56:19.927Z,28.13
2018-12-02T01:58:47.332Z,28.80
2018-12-02T02:01:14.466Z,26.57
2018-12-02T02:03:41.534Z,30.53
2018-12-02T02:06:08.883Z,32.13
2018-12-02T02:08:35.920Z,26.27
2018-12-02T02:11:03.014Z,28.13
2018-12-02T02:13:30.099Z,29.07
2018-12-02T02:15:57.178Z,32.47
2018-12-02T02:18:24.247Z,30.63
2018-12-02T02:20:51.568Z,30.73
2018-12-02T02:23:18.614Z,32.27
2018-12-02T02:25:45.696Z,25.87
2018-12-02T02:28:13.110Z,29.63
2018-12-02T02:30:40.147Z,34.93
2018-12-02T02:33:07.199Z,34.90
2018-12-02T02:35:34.350Z,29.67
2018-12-02T02:38:01.398Z,32.30
2018-12-02T02:40:28.919Z,28.80
2018-12-02T02:42:55.990Z,28.37
2018-12-02T02:45:29.899Z,30.00
2018-12-02T02:47:57.209Z,26.50
2018-12-02T02:50:24.588Z,27.67
2018-12-02T02:52:52.220Z,24.60
2018-12-02T02:55:19.545Z,27.07
2018-12-02T02:57:46.630Z,28.80
2018-12-02T03:00:15.190Z,28.77
2018-12-02T03:02:42.566Z,28.53
2018-12-02T03:05:10.110Z,28.33
2018-12-02T03:07:37.199Z,33.50
2018-12-02T03:10:05.684Z,26.43
2018-12-02T03:12:32.766Z,25.17
2018-12-02T03:14:59.851Z,29.97
2018-12-02T03:17:26.939Z,26.20
2018-12-02T03:19:54.008Z,26.63
2018-12-02T03:22:21.078Z,27.23
2018-12-02T03:24:48.240Z,27.43
2018-12-02T03:27:15.328Z,32.17
2018-12-02T03:29:42.537Z,21.50
2018-12-02T03:32:09.932Z,25.93
2018-12-02T03:34:37.018Z,26.70
2018-12-02T03:37:04.426Z,27.73
2018-12-02T03:39:31.527Z,26.80
2018-12-02T03:41:58.582Z,28.10
2018-12-02T03:44:25.656Z,26.03
2018-12-02T03:46:52.797Z,32.30
2018-12-02T03:49:19.862Z,29.33
2018-12-02T03:51:46.963Z,28.03
2018-12-02T03:54:14.351Z,28.87
2018-12-02T03:56:46.068Z,29.33
2018-12-02T03:59:13.110Z,26.93
2018-12-02T04:01:40.182Z,29.30
2018-12-02T04:04:07.228Z,27.77
2018-12-02T04:06:34.362Z,24.80
2018-12-02T04:09:01.731Z,25.20
2018-12-02T04:11:28.786Z,31.23
2018-12-02T04:13:55.856Z,30.03
2018-12-02T04:16:23.162Z,26.73
2018-12-02T04:18:50.895Z,28.10
2018-12-02T04:21:18.111Z,27.03
2018-12-02T04:23:45.210Z,27.83
2018-12-02T04:26:12.250Z,23.20
2018-12-02T04:28:39.340Z,27.93
2018-12-02T04:31:06.439Z,26.53
2018-12-02T04:33:33.539Z,22.40
2018-12-02T04:36:00.650Z,24.93
2018-12-02T04:38:28.080Z,30.50
2018-12-02T04:40:55.177Z,22.60
2018-12-02T04:43:22.245Z,22.93
2018-12-02T04:45:49.627Z,23.13
2018-12-02T04:48:16.711Z,26.00
2018-12-02T04:50:43.803Z,33.27
2018-12-02T04:53:11.216Z,28.93
2018-12-02T04:55:38.295Z,24.63
2018-12-02T04:58:06.083Z,26.67
2018-12-02T05:00:33.239Z,21.83
2018-12-02T05:03:00.260Z,21.37
2018-12-02T05:05:27.319Z,38.13
2018-12-02T05:07:54.422Z,23.13
2018-12-02T05:10:21.528Z,21.27
2018-12-02T05:12:48.880Z,25.10
2018-12-02T05:15:16.381Z,28.33
2018-12-02T05:17:43.439Z,27.70
2018-12-02T05:20:11.862Z,23.67
2018-12-02T05:22:39.348Z,25.80
2018-12-02T05:25:07.309Z,27.00
2018-12-02T05:27:34.393Z,24.30
2018-12-02T05:30:02.023Z,26.10
2018-12-02T05:32:29.125Z,25.53
2018-12-02T05:34:56.174Z,28.17
2018-12-02T05:37:23.244Z,21.83
2018-12-02T05:39:50.334Z,22.47
2018-12-02T05:42:23.535Z,22.80
2018-12-02T05:44:50.725Z,24.10
2018-12-02T05:47:17.862Z,19.80
2018-12-02T05:49:46.202Z,24.80
2018-12-02T05:52:13.335Z,24.60
2018-12-02T05:54:40.417Z,23.30
2018-12-02T05:57:07.713Z,24.07
2018-12-02T05:59:34.758Z,22.07
2018-12-02T06:02:01.831Z,19.43
2018-12-02T06:04:28.975Z,22.23
2018-12-02T06:06:56.063Z,20.43
2018-12-02T06:09:23.155Z,19.57
2018-12-02T06:11:50.283Z,21.50
2018-12-02T06:14:17.358Z,24.10
2018-12-02T06:16:44.398Z,17.83
2018-12-02T06:19:11.755Z,20.73
2018-12-02T06:21:38.872Z,22.13
2018-12-02T06:24:05.925Z,20.00
2018-12-02T06:26:33.019Z,18.60
2018-12-02T06:29:00.095Z,23.53
2018-12-02T06:31:27.149Z,22.30
2018-12-02T06:33:54.229Z,19.30
2018-12-02T06:36:21.266Z,21.90
2018-12-02T06:38:48.335Z,20.27
2018-12-02T06:41:15.456Z,23.13
2018-12-02T06:43:42.502Z,23.30
2018-12-02T06:46:09.568Z,22.67
2018-12-02T06:48:36.640Z,24.73
2018-12-02T06:51:03.707Z,19.70
2018-12-02T06:53:30.750Z,20.07
2018-12-02T06:56:05.400Z,22.80
2018-12-02T06:58:37.208Z,21.37
2018-12-02T07:01:38.466Z,20.23
2018-12-02T07:04:08.204Z,20.50
2018-12-02T07:06:35.306Z,21.67
2018-12-02T07:09:02.848Z,20.50
2018-12-02T07:11:29.897Z,26.47
2018-12-02T07:13:56.976Z,21.53
2018-12-02T07:16:24.371Z,20.50
2018-12-02T07:18:53.702Z,20.63
2018-12-02T07:21:22.145Z,21.97
2018-12-02T07:23:49.269Z,18.60
2018-12-02T07:26:17.638Z,20.93
2018-12-02T07:28:44.805Z,20.10
2018-12-02T07:31:11.898Z,20.50
2018-12-02T07:33:38.954Z,20.13
2018-12-02T07:36:06.625Z,24.73
2018-12-02T07:39:07.986Z,18.37
2018-12-02T07:41:35.033Z,24.90
2018-12-02T07:44:02.073Z,19.90
2018-12-02T07:46:29.499Z,25.10
2018-12-02T07:48:56.584Z,21.07
2018-12-02T07:51:23.622Z,22.27
2018-12-02T07:53:50.727Z,20.60
2018-12-02T07:56:17.835Z,23.03
2018-12-02T07:58:44.879Z,18.30
2018-12-02T08:01:12.307Z,24.50
2018-12-02T08:03:39.358Z,20.47
2018-12-02T08:06:06.474Z,19.73
2018-12-02T08:08:33.596Z,19.60
2018-12-02T08:11:00.717Z,19.70
2018-12-02T08:13:27.928Z,17.87
2018-12-02T08:15:55.398Z,21.20
2018-12-02T08:18:22.440Z,19.00
2018-12-02T08:20:49.474Z,17.07
2018-12-02T08:23:16.865Z,22.17
2018-12-02T08:25:44.012Z,16.17
2018-12-02T08:28:11.066Z,19.30
2018-12-02T08:30:38.128Z,20.77
2018-12-02T08:33:05.287Z,19.70
2018-12-02T08:35:32.334Z,19.67
2018-12-02T08:38:00.684Z,17.43
2018-12-02T08:40:27.750Z,21.53
2018-12-02T08:42:54.805Z,18.77
2018-12-02T08:45:22.405Z,19.83
2018-12-02T08:47:49.515Z,21.20
2018-12-02T08:50:17.065Z,17.57
2018-12-02T08:52:44.530Z,17.63
2018-12-02T08:55:12.208Z,17.90
2018-12-02T08:57:40.186Z,21.07
2018-12-02T09:00:12.514Z,20.23
2018-12-02T09:02:40.296Z,18.50
2018-12-02T09:05:08.490Z,21.53
2018-12-02T09:07:36.316Z,21.20
2018-12-02T09:10:06.136Z,18.80
2018-12-02T09:12:35.390Z,17.13
2018-12-02T09:15:02.688Z,20.37
2018-12-02T09:17:31.089Z,21.30
2018-12-02T09:19:59.132Z,24.47
2018-12-02T09:22:26.700Z,18.50
2018-12-02T09:24:53.751Z,17.10
2018-12-02T09:27:20.978Z,19.03
2018-12-02T09:29:48.521Z,19.30
2018-12-02T09:32:18.148Z,19.20
2018-12-02T09:34:45.415Z,18.67
2018-12-02T09:37:12.516Z,17.00
2018-12-02T09:39:39.714Z,19.30
2018-12-02T09:42:08.720Z,17.83
2018-12-02T09:44:37.288Z,18.17
2018-12-02T09:47:04.347Z,20.33
2018-12-02T09:49:33.687Z,19.70
2018-12-02T09:52:03.039Z,18.00
2018-12-02T09:54:31.340Z,18.33
2018-12-02T09:56:58.475Z,20.80
2018-12-02T09:59:25.802Z,19.00
2018-12-02T10:01:52.855Z,14.87
2018-12-02T10:04:19.923Z,16.63
2018-12-02T10:06:47.081Z,19.70
2018-12-02T10:09:14.170Z,17.13
2018-12-02T10:11:43.258Z,23.33
2018-12-02T10:14:10.751Z,15.83
2018-12-02T10:16:40.155Z,14.70
2018-12-02T10:19:07.633Z,19.43
2018-12-02T10:21:34.999Z,16.50
2018-12-02T10:24:02.138Z,15.07
2018-12-02T10:26:29.182Z,19.03
2018-12-02T10:28:56.615Z,13.50
2018-12-02T10:31:23.663Z,14.83
2018-12-02T10:33:50.835Z,13.80
2018-12-02T10:36:18.193Z,20.83
2018-12-02T10:38:45.254Z,14.97
2018-12-02T10:41:12.339Z,15.77
2018-12-02T10:43:39.538Z,14.10
2018-12-02T10:46:06.606Z,15.60
2018-12-02T10:48:33.790Z,15.03
2018-12-02T10:51:01.178Z,14.10
2018-12-02T10:53:28.285Z,12.83
2018-12-02T10:55:55.949Z,13.00
2018-12-02T10:58:24.613Z,13.10
2018-12-02T11:00:58.065Z,15.67
2018-12-02T11:03:25.398Z,12.93
2018-12-02T11:05:52.536Z,20.53
2018-12-02T11:08:19.752Z,14.10
2018-12-02T11:10:47.243Z,13.20
2018-12-02T11:13:14.290Z,12.40
2018-12-02T11:15:41.326Z,10.60
2018-12-02T11:18:09.485Z,12.90
2018-12-02T11:20:36.572Z,13.63
2018-12-02T11:23:04.088Z,11.00
2018-12-02T11:25:31.189Z,13.00
2018-12-02T11:27:58.247Z,12.73
2018-12-02T11:30:25.338Z,14.53
2018-12-02T11:32:53.450Z,12.73
2018-12-02T11:35:20.531Z,16.43
2018-12-02T11:37:47.589Z,12.00
2018-12-02T11:40:15.219Z,12.60
2018-12-02T11:42:42.393Z,17.20
2018-12-02T11:45:10.695Z,11.57
2018-12-02T11:47:38.543Z,14.73
2018-12-02T11:50:07.795Z,13.73
2018-12-02T11:52:34.963Z,14.87
2018-12-02T11:55:02.366Z,12.53
2018-12-02T11:57:29.423Z,10.90
2018-12-02T11:59:56.495Z,16.50
2018-12-02T12:02:23.927Z,14.80
2018-12-02T12:04:51.002Z,14.73
2018-12-02T12:07:18.078Z,13.63
2018-12-02T12:09:45.235Z,13.07
2018-12-02T12:12:12.321Z,14.07
2018-12-02T12:14:39.832Z,12.10
2018-12-02T12:17:07.032Z,9.80
2018-12-02T12:19:34.130Z,11.30
2018-12-02T12:22:01.212Z,13.03
2018-12-02T12:24:28.340Z,11.30
2018-12-02T12:26:56.242Z,13.17
2018-12-02T12:29:23.817Z,14.13
2018-12-02T12:31:50.926Z,13.10
2018-12-02T12:34:18.327Z,13.50
2018-12-02T12:36:45.773Z,11.97
2018-12-02T12:39:13.111Z,11.80
2018-12-02T12:41:40.183Z,11.13
2018-12-02T12:44:08.322Z,12.93
2018-12-02T12:46:35.443Z,16.47
2018-12-02T12:49:02.636Z,13.37
2018-12-02T12:51:29.697Z,15.80
2018-12-02T12:53:56.790Z,14.37
2018-12-02T12:56:23.932Z,13.57
2018-12-02T12:58:51.023Z,13.50
2018-12-02T13:01:18.211Z,14.93
2018-12-02T13:03:45.290Z,18.20
2018-12-02T13:06:12.350Z,14.97
2018-12-02T13:08:39.880Z,15.83
2018-12-02T13:11:07.007Z,15.60
2018-12-02T13:13:34.154Z,15.50
2018-12-02T13:16:02.322Z,15.60
2018-12-02T13:18:29.503Z,14.07
2018-12-02T13:20:56.604Z,15.73
2018-12-02T13:23:23.772Z,15.43
2018-12-02T13:25:51.032Z,15.60
2018-12-02T13:28:18.126Z,15.90
2018-12-02T13:30:45.359Z,16.90
2018-12-02T13:33:12.625Z,17.30
2018-12-02T13:35:40.027Z,15.73
2018-12-02T13:38:07.163Z,17.40
2018-12-02T13:40:34.535Z,14.03
2018-12-02T13:43:04.135Z,15.53
2018-12-02T13:45:31.311Z,15.03
2018-12-02T13:47:58.434Z,12.00
2018-12-02T13:50:25.583Z,14.13
2018-12-02T13:52:53.259Z,18.50
2018-12-02T13:55:24.798Z,17.83
2018-12-02T13:57:51.922Z,19.20
2018-12-02T14:00:19.810Z,22.53
2018-12-02T14:02:47.477Z,21.20
2018-12-02T14:05:14.581Z,16.93
2018-12-02T14:07:41.649Z,14.40
2018-12-02T14:10:09.279Z,12.50
2018-12-02T14:12:36.404Z,13.07
2018-12-02T14:15:14.275Z,15.43
2018-12-02T14:17:42.190Z,14.90
2018-12-02T14:20:09.286Z,14.10
2018-12-02T14:22:36.394Z,15.10
2018-12-02T14:25:03.754Z,16.40
2018-12-02T14:27:30.802Z,19.37
2018-12-02T14:29:58.249Z,23.10
2018-12-02T14:32:25.477Z,17.07
2018-12-02T14:34:52.591Z,20.70
2018-12-02T14:37:19.798Z,18.13
2018-12-02T14:39:46.891Z,15.83
2018-12-02T14:42:13.979Z,21.57
2018-12-02T14:44:41.101Z,19.90
2018-12-02T14:47:08.272Z,16.80
2018-12-02T14:49:35.385Z,17.23
2018-12-02T14:52:02.579Z,19.07
2018-12-02T14:54:29.659Z,19.57
2018-12-02T14:56:56.710Z,17.80
2018-12-02T14:59:24.121Z,19.90
2018-12-02T15:01:52.590Z,22.90
2018-12-02T15:04:19.695Z,23.30
2018-12-02T15:06:47.134Z,20.90
2018-12-02T15:09:14.267Z,20.63
2018-12-02T15:11:41.566Z,21.23
2018-12-02T15:14:09.543Z,23.30
2018-12-02T15:16:36.638Z,24.37
2018-12-02T15:19:04.129Z,23.10
2018-12-02T15:21:31.668Z,26.43
2018-12-02T15:23:58.794Z,24.47
2018-12-02T15:26:25.899Z,32.23
2018-12-02T15:28:53.616Z,23.20
2018-12-02T15:31:20.768Z,30.33
2018-12-02T15:33:47.816Z,25.97
2018-12-02T15:36:14.963Z,23.67
2018-12-02T15:38:42.102Z,25.70
2018-12-02T15:41:09.237Z,32.20
2018-12-02T15:43:36.370Z,24.87
2018-12-02T15:46:03.754Z,24.67
2018-12-02T15:48:31.282Z,25.70
2018-12-02T15:50:58.735Z,25.03
2018-12-02T15:53:25.882Z,30.30
2018-12-02T15:55:53.058Z,23.30
2018-12-02T15:58:20.733Z,25.23
2018-12-02T16:00:47.907Z,22.50
2018-12-02T16:03:15.086Z,24.10
2018-12-02T16:05:42.481Z,27.53
2018-12-02T16:08:09.636Z,28.33
2018-12-02T16:10:36.845Z,28.17
2018-12-02T16:13:05.454Z,27.70
2018-12-02T16:15:33.182Z,26.57
2018-12-02T16:18:00.341Z,25.27
2018-12-02T16:20:31.674Z,31.90
2018-12-02T16:22:58.824Z,27.30
2018-12-02T16:25:25.902Z,31.63
2018-12-02T16:27:53.014Z,26.90
2018-12-02T16:30:20.160Z,32.93
2018-12-02T16:32:49.014Z,28.90
2018-12-02T16:35:16.532Z,27.27
2018-12-02T16:37:44.089Z,32.47
2018-12-02T16:40:12.042Z,31.90
2018-12-02T16:42:39.388Z,28.60
2018-12-02T16:45:07.488Z,43.63
2018-12-02T16:47:36.550Z,28.03
2018-12-02T16:50:06.769Z,28.70
2018-12-02T16:52:33.822Z,31.17
2018-12-02T16:55:01.051Z,36.43
2018-12-02T16:57:28.221Z,35.10
2018-12-02T16:59:55.362Z,31.87
2018-12-02T17:02:22.513Z,29.37
2018-12-02T17:04:49.610Z,34.57
2018-12-02T17:07:16.864Z,28.20
2018-12-02T17:09:44.169Z,30.90
2018-12-02T17:12:11.254Z,31.73
2018-12-02T17:14:38.815Z,29.77
2018-12-02T17:17:05.475Z,32.47
2018-12-02T17:19:32.605Z,31.27
2018-12-02T17:21:59.690Z,29.03
2018-12-02T17:24:26.815Z,33.77
2018-12-02T17:26:53.899Z,31.40
2018-12-02T17:29:20.990Z,30.50
2018-12-02T17:31:50.064Z,33.10
2018-12-02T17:34:17.280Z,30.13
2018-12-02T17:36:44.723Z,31.77
2018-12-02T17:39:12.726Z,33.90
2018-12-02T17:41:40.388Z,41.90
2018-12-02T17:44:07.474Z,34.73
2018-12-02T17:46:34.518Z,33.30
2018-12-02T17:49:01.644Z,32.20
2018-12-02T17:51:34.901Z,45.27
2018-12-02T17:54:02.008Z,32.20
2018-12-02T17:56:29.362Z,38.23
2018-12-02T17:58:56.618Z,39.70
2018-12-02T18:01:24.003Z,34.60
2018-12-02T18:03:51.280Z,33.93
2018-12-02T18:06:18.773Z,36.90
2018-12-02T18:08:46.408Z,30.03
2018-12-02T18:11:13.621Z,32.83
2018-12-02T18:13:41.122Z,32.50
2018-12-02T18:16:08.528Z,33.40
2018-12-02T18:18:35.703Z,30.87
2018-12-02T18:21:02.952Z,30.30
2018-12-02T18:23:30.262Z,33.03
2018-12-02T18:25:57.435Z,28.97
2018-12-02T18:28:24.794Z,31.70
2018-12-02T18:30:52.420Z,30.00
2018-12-02T18:33:19.647Z,29.33
2018-12-02T18:35:48.651Z,29.60
2018-12-02T18:38:19.015Z,29.60
2018-12-02T18:40:47.357Z,31.00
2018-12-02T18:43:14.599Z,26.77
2018-12-02T18:45:42.014Z,27.77
2018-12-02T18:48:09.451Z,35.40
2018-12-02T18:50:37.027Z,29.27
2018-12-02T18:53:04.931Z,27.77
2018-12-02T18:55:32.066Z,28.67
2018-12-02T18:57:59.550Z,30.87
2018-12-02T19:00:32.872Z,31.33
2018-12-02T19:03:00.251Z,37.77
2018-12-02T19:05:27.714Z,34.70
2018-12-02T19:07:54.936Z,23.33
2018-12-02T19:10:23.815Z,27.50
2018-12-02T19:12:51.505Z,23.40
2018-12-02T19:15:18.974Z,25.27
2018-12-02T19:17:46.459Z,20.87
2018-12-02T19:20:14.455Z,28.43
2018-12-02T19:22:41.705Z,24.20
2018-12-02T19:25:10.761Z,24.47
2018-12-02T19:27:38.094Z,27.20
2018-12-02T19:30:07.080Z,24.03
2018-12-02T19:32:35.243Z,22.40
2018-12-02T19:35:02.515Z,24.27
2018-12-02T19:37:30.185Z,22.30
2018-12-02T19:39:57.503Z,27.00
2018-12-02T19:42:24.712Z,24.00
2018-12-02T19:44:52.255Z,24.03
2018-12-02T19:47:19.651Z,21.80
2018-12-02T19:49:46.923Z,22.40
2018-12-02T19:52:14.423Z,22.93
2018-12-02T19:54:41.722Z,20.67
2018-12-02T19:57:08.798Z,22.27
2018-12-02T19:59:36.105Z,19.50
2018-12-02T20:02:03.188Z,22.63
2018-12-02T20:04:31.244Z,21.77
2018-12-02T20:06:58.378Z,22.77
2018-12-02T20:09:25.462Z,38.07
2018-12-02T20:11:52.560Z,32.30
2018-12-02T20:14:20.074Z,22.47
2018-12-02T20:16:47.294Z,20.10
2018-12-02T20:19:20.635Z,20.27
2018-12-02T20:21:47.788Z,30.67
2018-12-02T20:24:21.104Z,20.43
2018-12-02T20:26:48.254Z,21.97
2018-12-02T20:29:15.383Z,19.13
2018-12-02T20:31:42.859Z,18.60
2018-12-02T20:34:10.119Z,23.33
2018-12-02T20:36:37.491Z,19.10
2018-12-02T20:39:06.657Z,20.90
2018-12-02T20:41:33.794Z,19.87
2018-12-02T20:44:00.987Z,20.37
2018-12-02T20:46:28.062Z,19.37
2018-12-02T20:48:55.209Z,17.70
2018-12-02T20:51:22.372Z,18.30
2018-12-02T20:53:50.655Z,20.20
2018-12-02T20:56:16.911Z,17.30
2018-12-02T20:58:44.003Z,19.60
2018-12-02T21:01:13.324Z,19.33
2018-12-02T21:03:42.570Z,19.50
2018-12-02T21:06:10.725Z,18.90
2018-12-02T21:08:37.848Z,15.93
2018-12-02T21:11:04.998Z,19.20
2018-12-02T21:13:32.072Z,17.17
2018-12-02T21:15:59.850Z,22.30
2018-12-02T21:18:26.925Z,18.43
2018-12-02T21:20:53.986Z,20.50
2018-12-02T21:23:21.084Z,17.33
2018-12-02T21:25:48.423Z,18.37
2018-12-02T21:28:15.828Z,17.40
2018-12-02T21:30:43.243Z,22.60
2018-12-02T21:33:10.362Z,18.83
2018-12-02T21:35:37.633Z,22.37
2018-12-02T21:38:05.319Z,20.40
2018-12-02T21:40:32.453Z,17.10
2018-12-02T21:42:59.506Z,18.47
2018-12-02T21:45:26.612Z,18.37
2018-12-02T21:47:54.252Z,18.23
2018-12-02T21:50:23.114Z,20.67
2018-12-02T21:52:51.124Z,18.07
2018-12-02T21:55:18.166Z,15.63
2018-12-02T21:57:45.253Z,19.30
2018-12-02T22:00:18.876Z,21.30
2018-12-02T22:02:46.094Z,18.40
2018-12-02T22:05:13.270Z,16.83
2018-12-02T22:07:40.763Z,26.23
2018-12-02T22:10:08.727Z,17.40
2018-12-02T22:12:35.763Z,17.10
2018-12-02T22:15:03.106Z,18.30
2018-12-02T22:17:30.580Z,16.70
2018-12-02T22:19:57.657Z,16.27
2018-12-02T22:22:24.781Z,15.33
2018-12-02T22:24:52.094Z,16.00
2018-12-02T22:27:19.241Z,15.90
2018-12-02T22:29:46.868Z,14.43
2018-12-02T22:32:14.012Z,15.40
2018-12-02T22:34:41.133Z,14.83
2018-12-02T22:37:08.314Z,17.80
2018-12-02T22:39:35.411Z,19.20
2018-12-02T22:42:02.539Z,17.30
2018-12-02T22:44:31.569Z,21.50
2018-12-02T22:46:56.749Z,16.83
2018-12-02T22:49:23.830Z,18.93
2018-12-02T22:51:50.964Z,18.70
2018-12-02T22:54:18.116Z,17.43
2018-12-02T22:56:45.162Z,16.80
2018-12-02T22:59:12.526Z,17.57
2018-12-02T23:01:45.426Z,17.53
2018-12-02T23:04:12.773Z,18.20
2018-12-02T23:06:39.870Z,26.90
2018-12-02T23:09:07.074Z,17.87
2018-12-02T23:11:34.387Z,25.40
2018-12-02T23:14:01.439Z,19.70
2018-12-02T23:16:28.589Z,19.00
2018-12-02T23:18:55.669Z,20.57
2018-12-02T23:21:22.911Z,21.73
2018-12-02T23:23:49.962Z,26.00
2018-12-02T23:26:17.326Z,18.40
2018-12-02T23:28:44.399Z,23.03
2018-12-02T23:31:11.512Z,19.70
2018-12-02T23:33:38.695Z,19.50
2018-12-02T23:36:05.746Z,18.93
2018-12-02T23:38:32.833Z,19.83
2018-12-02T23:43:34.136Z,17.80
2018-12-02T23:46:01.240Z,18.37
2018-12-02T23:48:28.397Z,18.10
2018-12-02T23:50:55.599Z,14.53
2018-12-02T23:53:22.942Z,16.43
2018-12-02T23:55:50.002Z,14.20
2018-12-02T23:58:17.139Z,14.47
